Coronel Brandsen, Argentina
Current Conditions -  °F | °C
As of 6:00 PM on Friday 19 Dec 2014 (Local Time) from SAEZ Reporting Station
Clear Clear  
Wind Chill: 91°   Ceiling: Unl
Heat Index: 91°   Visibility: 6mi
Dew Point: 57°   Wind: 14mph
Humidity: 31%   Direction: 340°NNW
Pressure: 29.53"   Gusts: NA
Location:  35.17°S, 58.23°W
Report Text: SAEZ 192100Z 34012KT 300V040 CAVOK 33/14 Q1000
Loading
Personal Weather Stations






























Interactive Weather Map New forecast layout! Learn more

10-Day Weather Forecast

Advertisements
Track Severe Weather on mobile